sensor_id;sensor_type;location;lat;lon;timestamp;pressure;altitude;pressure_sealevel;temperature;humidity
25084;BME280;13075;55.682;37.564;2023-02-15T00:01:41;99789.75;;;3.92;100.00
25084;BME280;13075;55.682;37.564;2023-02-15T00:04:07;99797.91;;;3.63;100.00
25084;BME280;13075;55.682;37.564;2023-02-15T00:06:33;99794.78;;;4.03;100.00
25084;BME280;13075;55.682;37.564;2023-02-15T00:08:59;99799.19;;;4.12;100.00
25084;BME280;13075;55.682;37.564;2023-02-15T00:11:25;99798.06;;;4.14;100.00
25084;BME280;13075;55.682;37.564;2023-02-15T00:14:16;99793.66;;;4.05;100.00
25084;BME280;13075;55.682;37.564;2023-02-15T00:16:44;99808.22;;;4.45;100.00
25084;BME280;13075;55.682;37.564;2023-02-15T00:19:11;99791.00;;;4.05;100.00
25084;BME280;13075;55.682;37.564;2023-02-15T00:21:38;99797.47;;;4.46;100.00
25084;BME280;13075;55.682;37.564;2023-02-15T00:24:07;99792.44;;;4.35;100.00
25084;BME280;13075;55.682;37.564;2023-02-15T00:26:33;99785.59;;;4.50;100.00
25084;BME280;13075;55.682;37.564;2023-02-15T00:28:59;99802.88;;;4.62;100.00
25084;BME280;13075;55.682;37.564;2023-02-15T00:31:27;99804.19;;;4.15;100.00
25084;BME280;13075;55.682;37.564;2023-02-15T00:33:54;99797.63;;;4.45;100.00
25084;BME280;13075;55.682;37.564;2023-02-15T00:36:20;99800.69;;;4.32;100.00
25084;BME280;13075;55.682;37.564;2023-02-15T00:38:47;99795.56;;;4.56;100.00
25084;BME280;13075;55.682;37.564;2023-02-15T00:41:13;99798.53;;;4.10;100.00
25084;BME280;13075;55.682;37.564;2023-02-15T00:43:38;99797.38;;;4.12;100.00
25084;BME280;13075;55.682;37.564;2023-02-15T00:46:04;99807.38;;;4.44;100.00
25084;BME280;13075;55.682;37.564;2023-02-15T00:48:30;99808.09;;;4.46;100.00
25084;BME280;13075;55.682;37.564;2023-02-15T00:50:58;99804.16;;;4.32;100.00
25084;BME280;13075;55.682;37.564;2023-02-15T00:53:25;99805.06;;;4.67;100.00
25084;BME280;13075;55.682;37.564;2023-02-15T00:55:52;99808.09;;;4.46;100.00
25084;BME280;13075;55.682;37.564;2023-02-15T00:58:17;99805.78;;;4.25;100.00
25084;BME280;13075;55.682;37.564;2023-02-15T01:03:21;99816.09;;;4.36;100.00
25084;BME280;13075;55.682;37.564;2023-02-15T01:05:48;99814.66;;;4.42;100.00
25084;BME280;13075;55.682;37.564;2023-02-15T01:08:14;99816.44;;;4.59;100.00
25084;BME280;13075;55.682;37.564;2023-02-15T01:10:40;99821.19;;;4.30;100.00
25084;BME280;13075;55.682;37.564;2023-02-15T01:13:06;99810.53;;;4.04;100.00
25084;BME280;13075;55.682;37.564;2023-02-15T01:15:35;99812.59;;;4.10;100.00
25084;BME280;13075;55.682;37.564;2023-02-15T01:18:00;99817.09;;;3.83;100.00
25084;BME280;13075;55.682;37.564;2023-02-15T01:20:27;99833.81;;;3.83;100.00
25084;BME280;13075;55.682;37.564;2023-02-15T01:22:54;99816.97;;;3.66;100.00
25084;BME280;13075;55.682;37.564;2023-02-15T01:25:22;99824.44;;;3.53;100.00
25084;BME280;13075;55.682;37.564;2023-02-15T01:27:48;99818.91;;;3.64;100.00
25084;BME280;13075;55.682;37.564;2023-02-15T01:30:14;99824.19;;;3.64;100.00
25084;BME280;13075;55.682;37.564;2023-02-15T01:32:41;99823.78;;;4.04;100.00
25084;BME280;13075;55.682;37.564;2023-02-15T01:35:08;99820.53;;;4.10;100.00
25084;BME280;13075;55.682;37.564;2023-02-15T01:37:34;99822.31;;;4.27;100.00
25084;BME280;13075;55.682;37.564;2023-02-15T01:40:01;99810.94;;;3.74;100.00
25084;BME280;13075;55.682;37.564;2023-02-15T01:42:28;99829.38;;;4.01;100.00
25084;BME280;13075;55.682;37.564;2023-02-15T01:50:33;99831.94;;;3.93;100.00
25084;BME280;13075;55.682;37.564;2023-02-15T01:55:49;99833.22;;;4.07;100.00
25084;BME280;13075;55.682;37.564;2023-02-15T01:58:16;99842.91;;;4.16;100.00
25084;BME280;13075;55.682;37.564;2023-02-15T02:00:43;99837.84;;;4.22;100.00
25084;BME280;13075;55.682;37.564;2023-02-15T02:03:09;99841.16;;;4.24;100.00
25084;BME280;13075;55.682;37.564;2023-02-15T02:05:34;99841.69;;;4.28;100.00
25084;BME280;13075;55.682;37.564;2023-02-15T02:08:02;99841.75;;;3.65;100.00
25084;BME280;13075;55.682;37.564;2023-02-15T02:10:30;99839.28;;;4.17;100.00
25084;BME280;13075;55.682;37.564;2023-02-15T02:12:59;99843.66;;;4.44;100.00
25084;BME280;13075;55.682;37.564;2023-02-15T02:15:37;99848.69;;;4.55;100.00
25084;BME280;13075;55.682;37.564;2023-02-15T02:27:24;99843.28;;;3.86;100.00
25084;BME280;13075;55.682;37.564;2023-02-15T02:33:14;99852.97;;;4.12;100.00
25084;BME280;13075;55.682;37.564;2023-02-15T02:35:44;99855.38;;;3.88;100.00
25084;BME280;13075;55.682;37.564;2023-02-15T02:38:33;99852.91;;;4.04;100.00
25084;BME280;13075;55.682;37.564;2023-02-15T02:47:00;99863.94;;;4.17;100.00
25084;BME280;13075;55.682;37.564;2023-02-15T02:52:04;99857.72;;;3.91;100.00
25084;BME280;13075;55.682;37.564;2023-02-15T02:54:34;99859.31;;;4.02;100.00
25084;BME280;13075;55.682;37.564;2023-02-15T02:57:04;99860.94;;;4.12;100.00
25084;BME280;13075;55.682;37.564;2023-02-15T02:59:34;99862.47;;;4.05;100.00
25084;BME280;13075;55.682;37.564;2023-02-15T03:02:13;99859.16;;;3.86;100.00
25084;BME280;13075;55.682;37.564;2023-02-15T03:04:47;99862.94;;;4.18;100.00
25084;BME280;13075;55.682;37.564;2023-02-15T03:07:18;99866.88;;;4.14;100.00
25084;BME280;13075;55.682;37.564;2023-02-15T03:09:52;99871.34;;;3.96;100.00
25084;BME280;13075;55.682;37.564;2023-02-15T03:12:31;99876.72;;;3.87;100.00
25084;BME280;13075;55.682;37.564;2023-02-15T03:15:08;99878.91;;;4.09;100.00
25084;BME280;13075;55.682;37.564;2023-02-15T03:17:43;99867.69;;;3.79;100.00
25084;BME280;13075;55.682;37.564;2023-02-15T03:20:36;99871.03;;;3.82;100.00
25084;BME280;13075;55.682;37.564;2023-02-15T03:23:10;99872.38;;;3.86;100.00
25084;BME280;13075;55.682;37.564;2023-02-15T03:25:41;99881.94;;;3.96;100.00
25084;BME280;13075;55.682;37.564;2023-02-15T03:28:14;99876.13;;;4.10;100.00
25084;BME280;13075;55.682;37.564;2023-02-15T03:30:44;99886.22;;;3.52;100.00
25084;BME280;13075;55.682;37.564;2023-02-15T03:33:11;99882.88;;;3.23;100.00
25084;BME280;13075;55.682;37.564;2023-02-15T03:35:53;99884.75;;;3.67;100.00
25084;BME280;13075;55.682;37.564;2023-02-15T03:38:30;99886.56;;;3.40;100.00
25084;BME280;13075;55.682;37.564;2023-02-15T03:40:59;99880.63;;;3.28;100.00
25084;BME280;13075;55.682;37.564;2023-02-15T03:43:49;99890.22;;;2.83;100.00
25084;BME280;13075;55.682;37.564;2023-02-15T03:46:33;99868.75;;;3.42;100.00
25084;BME280;13075;55.682;37.564;2023-02-15T03:49:09;99881.16;;;3.04;100.00
25084;BME280;13075;55.682;37.564;2023-02-15T03:51:38;99881.72;;;3.35;100.00
25084;BME280;13075;55.682;37.564;2023-02-15T03:54:18;99882.94;;;3.68;100.00
25084;BME280;13075;55.682;37.564;2023-02-15T03:57:04;99888.53;;;3.65;100.00
25084;BME280;13075;55.682;37.564;2023-02-15T03:59:51;99884.66;;;3.59;100.00
25084;BME280;13075;55.682;37.564;2023-02-15T04:02:41;99891.81;;;3.76;100.00
25084;BME280;13075;55.682;37.564;2023-02-15T04:05:10;99894.88;;;3.99;100.00
25084;BME280;13075;55.682;37.564;2023-02-15T04:07:35;99898.47;;;3.98;100.00
25084;BME280;13075;55.682;37.564;2023-02-15T04:10:01;99896.53;;;4.00;100.00
25084;BME280;13075;55.682;37.564;2023-02-15T04:12:45;99895.47;;;3.93;100.00
25084;BME280;13075;55.682;37.564;2023-02-15T04:15:13;99896.00;;;3.69;100.00
25084;BME280;13075;55.682;37.564;2023-02-15T04:17:57;99893.44;;;4.05;100.00
25084;BME280;13075;55.682;37.564;2023-02-15T04:20:23;99898.16;;;3.84;100.00
25084;BME280;13075;55.682;37.564;2023-02-15T04:23:07;99902.78;;;3.54;100.00
25084;BME280;13075;55.682;37.564;2023-02-15T04:25:51;99892.34;;;3.98;100.00
25084;BME280;13075;55.682;37.564;2023-02-15T04:28:17;99914.91;;;4.02;100.00
25084;BME280;13075;55.682;37.564;2023-02-15T04:30:43;99899.38;;;2.98;100.00
25084;BME280;13075;55.682;37.564;2023-02-15T04:33:08;99901.25;;;3.52;100.00
25084;BME280;13075;55.682;37.564;2023-02-15T04:35:34;99895.84;;;3.44;100.00
25084;BME280;13075;55.682;37.564;2023-02-15T04:38:00;99903.84;;;3.34;100.00
25084;BME280;13075;55.682;37.564;2023-02-15T04:40:25;99898.47;;;3.53;100.00
25084;BME280;13075;55.682;37.564;2023-02-15T04:42:51;99906.50;;;3.34;100.00
25084;BME280;13075;55.682;37.564;2023-02-15T04:45:17;99907.06;;;3.28;100.00
25084;BME280;13075;55.682;37.564;2023-02-15T04:47:43;99911.66;;;3.26;100.00
25084;BME280;13075;55.682;37.564;2023-02-15T04:50:09;99916.88;;;4.00;100.00
25084;BME280;13075;55.682;37.564;2023-02-15T04:52:35;99912.44;;;3.73;100.00
25084;BME280;13075;55.682;37.564;2023-02-15T04:55:00;99895.78;;;3.63;100.00
25084;BME280;13075;55.682;37.564;2023-02-15T04:57:26;99891.97;;;3.48;100.00
25084;BME280;13075;55.682;37.564;2023-02-15T04:59:52;99897.25;;;3.11;100.00
25084;BME280;13075;55.682;37.564;2023-02-15T05:02:17;99896.25;;;3.49;100.00
25084;BME280;13075;55.682;37.564;2023-02-15T05:04:43;99892.59;;;3.59;100.00
25084;BME280;13075;55.682;37.564;2023-02-15T05:07:09;99899.88;;;3.75;100.00
25084;BME280;13075;55.682;37.564;2023-02-15T05:09:34;99908.09;;;3.82;100.00
25084;BME280;13075;55.682;37.564;2023-02-15T05:12:00;99899.00;;;3.57;100.00
25084;BME280;13075;55.682;37.564;2023-02-15T05:14:25;99916.81;;;3.82;100.00
25084;BME280;13075;55.682;37.564;2023-02-15T05:16:51;99911.13;;;3.87;100.00
25084;BME280;13075;55.682;37.564;2023-02-15T05:19:19;99922.06;;;3.64;100.00
25084;BME280;13075;55.682;37.564;2023-02-15T05:21:44;99929.22;;;3.54;100.00
25084;BME280;13075;55.682;37.564;2023-02-15T05:24:10;99934.81;;;3.51;100.00
25084;BME280;13075;55.682;37.564;2023-02-15T05:26:55;99931.81;;;3.64;100.00
25084;BME280;13075;55.682;37.564;2023-02-15T05:29:39;99930.34;;;4.06;100.00
25084;BME280;13075;55.682;37.564;2023-02-15T05:32:04;99938.94;;;3.27;100.00
25084;BME280;13075;55.682;37.564;2023-02-15T05:34:30;99938.28;;;3.52;100.00
25084;BME280;13075;55.682;37.564;2023-02-15T05:36:56;99933.22;;;3.68;100.00
25084;BME280;13075;55.682;37.564;2023-02-15T05:39:22;99935.78;;;3.77;100.00
25084;BME280;13075;55.682;37.564;2023-02-15T05:41:47;99930.00;;;3.64;100.00
25084;BME280;13075;55.682;37.564;2023-02-15T05:44:13;99929.31;;;3.35;100.00
25084;BME280;13075;55.682;37.564;2023-02-15T05:46:38;99941.44;;;3.28;100.00
25084;BME280;13075;55.682;37.564;2023-02-15T05:49:04;99950.66;;;3.05;100.00
25084;BME280;13075;55.682;37.564;2023-02-15T05:51:30;99944.13;;;3.55;100.00
25084;BME280;13075;55.682;37.564;2023-02-15T05:53:55;99947.97;;;3.34;100.00
25084;BME280;13075;55.682;37.564;2023-02-15T05:56:21;99955.75;;;3.35;100.00
25084;BME280;13075;55.682;37.564;2023-02-15T05:58:47;99953.94;;;3.36;100.00
25084;BME280;13075;55.682;37.564;2023-02-15T06:01:15;99943.34;;;3.45;100.00
25084;BME280;13075;55.682;37.564;2023-02-15T06:03:42;99953.03;;;3.54;100.00
25084;BME280;13075;55.682;37.564;2023-02-15T06:06:09;99942.63;;;3.43;100.00
25084;BME280;13075;55.682;37.564;2023-02-15T06:08:35;99943.34;;;3.36;100.00
25084;BME280;13075;55.682;37.564;2023-02-15T06:11:02;99941.59;;;3.63;100.00
25084;BME280;13075;55.682;37.564;2023-02-15T06:13:27;99943.50;;;3.71;100.00
25084;BME280;13075;55.682;37.564;2023-02-15T06:15:53;99944.63;;;3.96;100.00
25084;BME280;13075;55.682;37.564;2023-02-15T06:18:19;99955.84;;;3.80;100.00
25084;BME280;13075;55.682;37.564;2023-02-15T06:20:48;99963.38;;;3.75;100.00
25084;BME280;13075;55.682;37.564;2023-02-15T06:23:14;99959.38;;;3.71;100.00
25084;BME280;13075;55.682;37.564;2023-02-15T06:25:40;99967.66;;;3.49;100.00
25084;BME280;13075;55.682;37.564;2023-02-15T06:28:06;99965.91;;;3.67;100.00
25084;BME280;13075;55.682;37.564;2023-02-15T06:30:31;99975.09;;;3.72;100.00
25084;BME280;13075;55.682;37.564;2023-02-15T06:32:57;99970.63;;;4.00;100.00
25084;BME280;13075;55.682;37.564;2023-02-15T06:35:22;99964.88;;;3.87;100.00
25084;BME280;13075;55.682;37.564;2023-02-15T06:37:48;99967.38;;;3.89;100.00
25084;BME280;13075;55.682;37.564;2023-02-15T06:40:14;99972.00;;;3.50;100.00
25084;BME280;13075;55.682;37.564;2023-02-15T06:42:41;99970.91;;;3.43;100.00
25084;BME280;13075;55.682;37.564;2023-02-15T06:45:08;99977.69;;;3.55;100.00
25084;BME280;13075;55.682;37.564;2023-02-15T06:47:33;99977.13;;;3.88;100.00
25084;BME280;13075;55.682;37.564;2023-02-15T06:49:59;99988.41;;;4.08;100.00
25084;BME280;13075;55.682;37.564;2023-02-15T06:52:25;99978.56;;;3.36;100.00
25084;BME280;13075;55.682;37.564;2023-02-15T06:54:51;99984.09;;;3.52;100.00
25084;BME280;13075;55.682;37.564;2023-02-15T06:57:17;99982.91;;;3.74;100.00
25084;BME280;13075;55.682;37.564;2023-02-15T06:59:42;99978.56;;;4.00;100.00
25084;BME280;13075;55.682;37.564;2023-02-15T07:02:10;99989.47;;;3.97;100.00
25084;BME280;13075;55.682;37.564;2023-02-15T07:04:36;99969.47;;;3.85;100.00
25084;BME280;13075;55.682;37.564;2023-02-15T07:07:02;99981.78;;;3.76;100.00
25084;BME280;13075;55.682;37.564;2023-02-15T07:09:27;99979.25;;;4.29;98.66
25084;BME280;13075;55.682;37.564;2023-02-15T07:11:53;99957.75;;;4.15;99.86
25084;BME280;13075;55.682;37.564;2023-02-15T07:14:37;99976.63;;;4.02;100.00
25084;BME280;13075;55.682;37.564;2023-02-15T07:17:03;99983.06;;;3.63;100.00
25084;BME280;13075;55.682;37.564;2023-02-15T07:19:28;99974.41;;;3.98;100.00
25084;BME280;13075;55.682;37.564;2023-02-15T07:21:54;99972.97;;;4.13;100.00
25084;BME280;13075;55.682;37.564;2023-02-15T07:24:19;99976.38;;;3.96;100.00
25084;BME280;13075;55.682;37.564;2023-02-15T07:26:45;99980.16;;;3.93;100.00
25084;BME280;13075;55.682;37.564;2023-02-15T07:29:11;99979.66;;;3.80;100.00
25084;BME280;13075;55.682;37.564;2023-02-15T07:31:36;99977.28;;;3.87;100.00
25084;BME280;13075;55.682;37.564;2023-02-15T07:34:02;99989.94;;;3.56;100.00
25084;BME280;13075;55.682;37.564;2023-02-15T07:36:27;99987.41;;;3.54;100.00
25084;BME280;13075;55.682;37.564;2023-02-15T07:38:53;99986.84;;;3.97;100.00
25084;BME280;13075;55.682;37.564;2023-02-15T07:41:18;99984.84;;;4.44;100.00
25084;BME280;13075;55.682;37.564;2023-02-15T07:43:44;99979.13;;;4.31;100.00
25084;BME280;13075;55.682;37.564;2023-02-15T07:46:13;99988.41;;;4.70;100.00
25084;BME280;13075;55.682;37.564;2023-02-15T07:48:40;99993.31;;;4.30;100.00
25084;BME280;13075;55.682;37.564;2023-02-15T07:51:07;99995.97;;;3.75;100.00
25084;BME280;13075;55.682;37.564;2023-02-15T07:53:35;99987.56;;;4.17;100.00
25084;BME280;13075;55.682;37.564;2023-02-15T07:56:02;99992.16;;;4.15;100.00
25084;BME280;13075;55.682;37.564;2023-02-15T07:58:28;100002.56;;;3.99;100.00
25084;BME280;13075;55.682;37.564;2023-02-15T08:01:15;100003.34;;;3.72;100.00
25084;BME280;13075;55.682;37.564;2023-02-15T08:03:41;100000.38;;;3.85;100.00
25084;BME280;13075;55.682;37.564;2023-02-15T08:06:07;99998.34;;;4.06;100.00
25084;BME280;13075;55.682;37.564;2023-02-15T08:08:35;100016.06;;;3.96;100.00
25084;BME280;13075;55.682;37.564;2023-02-15T08:11:06;100013.09;;;4.08;100.00
25084;BME280;13075;55.682;37.564;2023-02-15T08:18:57;100019.84;;;3.66;100.00
25084;BME280;13075;55.682;37.564;2023-02-15T08:21:26;100010.16;;;4.74;100.00
25084;BME280;13075;55.682;37.564;2023-02-15T08:23:52;100016.53;;;4.63;99.27
25084;BME280;13075;55.682;37.564;2023-02-15T08:26:18;100010.72;;;4.77;97.54
25084;BME280;13075;55.682;37.564;2023-02-15T08:28:43;100013.31;;;4.60;94.11
25084;BME280;13075;55.682;37.564;2023-02-15T08:31:11;100026.72;;;4.40;94.98
25084;BME280;13075;55.682;37.564;2023-02-15T08:33:39;100022.81;;;4.17;95.74
25084;BME280;13075;55.682;37.564;2023-02-15T08:36:11;100036.78;;;4.10;94.84
25084;BME280;13075;55.682;37.564;2023-02-15T08:38:37;100032.50;;;4.54;94.32
25084;BME280;13075;55.682;37.564;2023-02-15T08:41:36;100033.41;;;3.34;93.00
25084;BME280;13075;55.682;37.564;2023-02-15T08:44:04;100031.81;;;3.60;100.00
25084;BME280;13075;55.682;37.564;2023-02-15T08:46:32;100037.19;;;4.05;99.74
25084;BME280;13075;55.682;37.564;2023-02-15T08:48:59;100040.28;;;4.01;100.00
25084;BME280;13075;55.682;37.564;2023-02-15T08:51:27;100045.09;;;3.88;100.00
25084;BME280;13075;55.682;37.564;2023-02-15T08:53:55;100037.97;;;3.88;100.00
25084;BME280;13075;55.682;37.564;2023-02-15T08:56:23;100039.28;;;4.11;100.00
25084;BME280;13075;55.682;37.564;2023-02-15T08:58:50;100044.16;;;3.79;100.00
25084;BME280;13075;55.682;37.564;2023-02-15T09:01:18;100055.94;;;4.21;99.38
25084;BME280;13075;55.682;37.564;2023-02-15T09:03:46;100037.06;;;3.14;100.00
25084;BME280;13075;55.682;37.564;2023-02-15T09:06:12;100033.97;;;3.84;100.00
25084;BME280;13075;55.682;37.564;2023-02-15T09:08:39;100042.31;;;3.79;100.00
25084;BME280;13075;55.682;37.564;2023-02-15T09:11:15;100043.84;;;3.45;100.00
25084;BME280;13075;55.682;37.564;2023-02-15T09:16:21;100039.97;;;4.58;94.96
25084;BME280;13075;55.682;37.564;2023-02-15T09:18:48;100025.53;;;4.88;89.40
25084;BME280;13075;55.682;37.564;2023-02-15T09:21:16;100027.97;;;4.81;87.50
25084;BME280;13075;55.682;37.564;2023-02-15T09:23:44;100036.19;;;4.16;92.58
25084;BME280;13075;55.682;37.564;2023-02-15T09:26:21;100035.25;;;4.34;93.05
25084;BME280;13075;55.682;37.564;2023-02-15T09:28:51;100041.59;;;3.97;94.83
25084;BME280;13075;55.682;37.564;2023-02-15T09:31:19;100035.38;;;4.15;95.04
25084;BME280;13075;55.682;37.564;2023-02-15T09:33:47;100048.19;;;4.37;94.22
25084;BME280;13075;55.682;37.564;2023-02-15T09:36:26;100050.31;;;4.07;91.20
25084;BME280;13075;55.682;37.564;2023-02-15T09:39:03;100059.81;;;4.00;97.68
25084;BME280;13075;55.682;37.564;2023-02-15T09:45:00;100064.94;;;4.38;87.35
25084;BME280;13075;55.682;37.564;2023-02-15T09:50:17;100050.59;;;4.93;87.99
25084;BME280;13075;55.682;37.564;2023-02-15T10:01:23;100063.25;;;3.73;96.89
25084;BME280;13075;55.682;37.564;2023-02-15T10:08:56;100065.38;;;4.33;88.01
25084;BME280;13075;55.682;37.564;2023-02-15T10:17:37;100073.84;;;4.37;94.11
25084;BME280;13075;55.682;37.564;2023-02-15T10:25:47;100078.06;;;4.30;100.00
25084;BME280;13075;55.682;37.564;2023-02-15T10:28:18;100079.16;;;4.00;99.36
25084;BME280;13075;55.682;37.564;2023-02-15T10:30:50;100080.66;;;4.12;97.97
25084;BME280;13075;55.682;37.564;2023-02-15T10:41:21;100075.16;;;3.21;100.00
25084;BME280;13075;55.682;37.564;2023-02-15T10:44:39;100091.66;;;4.08;100.00
25084;BME280;13075;55.682;37.564;2023-02-15T10:52:33;100107.16;;;4.03;99.71
25084;BME280;13075;55.682;37.564;2023-02-15T10:57:49;100110.44;;;4.24;100.00
25084;BME280;13075;55.682;37.564;2023-02-15T11:03:09;100110.84;;;4.56;95.42
25084;BME280;13075;55.682;37.564;2023-02-15T11:08:10;100097.94;;;4.44;94.62
25084;BME280;13075;55.682;37.564;2023-02-15T11:11:06;100116.56;;;4.24;93.50
25084;BME280;13075;55.682;37.564;2023-02-15T11:13:36;100112.94;;;4.25;92.27
25084;BME280;13075;55.682;37.564;2023-02-15T11:16:20;100114.59;;;4.26;95.66
25084;BME280;13075;55.682;37.564;2023-02-15T11:21:27;100125.34;;;4.52;93.90
25084;BME280;13075;55.682;37.564;2023-02-15T11:23:55;100105.53;;;4.29;95.86
25084;BME280;13075;55.682;37.564;2023-02-15T11:26:44;100126.97;;;3.99;94.37
25084;BME280;13075;55.682;37.564;2023-02-15T11:29:28;100132.22;;;4.45;95.85
25084;BME280;13075;55.682;37.564;2023-02-15T11:32:01;100138.03;;;4.21;99.20
25084;BME280;13075;55.682;37.564;2023-02-15T11:34:49;100141.47;;;4.41;99.46
25084;BME280;13075;55.682;37.564;2023-02-15T11:37:20;100146.19;;;4.01;100.00
25084;BME280;13075;55.682;37.564;2023-02-15T11:39:47;100137.97;;;4.04;100.00
25084;BME280;13075;55.682;37.564;2023-02-15T11:42:20;100156.38;;;3.96;100.00
25084;BME280;13075;55.682;37.564;2023-02-15T11:45:01;100148.00;;;4.00;100.00
25084;BME280;13075;55.682;37.564;2023-02-15T11:47:27;100149.34;;;3.48;100.00
25084;BME280;13075;55.682;37.564;2023-02-15T11:49:53;100152.78;;;3.77;100.00
25084;BME280;13075;55.682;37.564;2023-02-15T11:52:19;100147.03;;;4.38;100.00
25084;BME280;13075;55.682;37.564;2023-02-15T11:54:47;100152.84;;;4.14;100.00
25084;BME280;13075;55.682;37.564;2023-02-15T11:57:23;100159.69;;;3.98;100.00
25084;BME280;13075;55.682;37.564;2023-02-15T12:00:41;100152.47;;;3.90;100.00
25084;BME280;13075;55.682;37.564;2023-02-15T12:03:07;100151.56;;;3.34;100.00
25084;BME280;13075;55.682;37.564;2023-02-15T12:05:39;100152.25;;;3.64;100.00
25084;BME280;13075;55.682;37.564;2023-02-15T12:08:15;100161.78;;;4.04;100.00
25084;BME280;13075;55.682;37.564;2023-02-15T12:11:12;100160.06;;;4.22;99.99
25084;BME280;13075;55.682;37.564;2023-02-15T12:13:58;100166.03;;;4.33;100.00
25084;BME280;13075;55.682;37.564;2023-02-15T12:16:26;100174.03;;;4.14;100.00
25084;BME280;13075;55.682;37.564;2023-02-15T12:18:55;100178.25;;;3.88;100.00
25084;BME280;13075;55.682;37.564;2023-02-15T12:23:52;100179.22;;;3.97;100.00
25084;BME280;13075;55.682;37.564;2023-02-15T12:26:27;100181.28;;;4.12;100.00
25084;BME280;13075;55.682;37.564;2023-02-15T12:28:57;100178.81;;;3.72;100.00
25084;BME280;13075;55.682;37.564;2023-02-15T12:31:31;100187.03;;;3.69;100.00
25084;BME280;13075;55.682;37.564;2023-02-15T12:34:00;100173.53;;;3.72;100.00
25084;BME280;13075;55.682;37.564;2023-02-15T12:36:47;100187.28;;;3.95;100.00
25084;BME280;13075;55.682;37.564;2023-02-15T12:39:20;100194.25;;;4.06;100.00
25084;BME280;13075;55.682;37.564;2023-02-15T12:44:32;100198.69;;;4.15;100.00
25084;BME280;13075;55.682;37.564;2023-02-15T12:49:34;100184.41;;;3.41;98.48
25084;BME280;13075;55.682;37.564;2023-02-15T12:54:43;100217.81;;;3.80;99.38
25084;BME280;13075;55.682;37.564;2023-02-15T12:57:32;100215.28;;;3.11;100.00
25084;BME280;13075;55.682;37.564;2023-02-15T13:00:05;100222.72;;;2.87;100.00
25084;BME280;13075;55.682;37.564;2023-02-15T13:05:29;100242.25;;;3.15;100.00
25084;BME280;13075;55.682;37.564;2023-02-15T13:07:58;100240.28;;;2.58;100.00
25084;BME280;13075;55.682;37.564;2023-02-15T13:10:29;100230.47;;;2.79;100.00
25084;BME280;13075;55.682;37.564;2023-02-15T13:12:56;100239.34;;;3.18;100.00
25084;BME280;13075;55.682;37.564;2023-02-15T13:15:44;100236.22;;;3.53;97.85
25084;BME280;13075;55.682;37.564;2023-02-15T13:18:28;100233.16;;;3.57;96.70
25084;BME280;13075;55.682;37.564;2023-02-15T13:20:54;100246.53;;;3.56;96.61
25084;BME280;13075;55.682;37.564;2023-02-15T13:23:30;100245.88;;;3.04;100.00
25084;BME280;13075;55.682;37.564;2023-02-15T13:25:59;100243.56;;;3.49;96.90
25084;BME280;13075;55.682;37.564;2023-02-15T13:28:52;100256.38;;;3.54;95.64
25084;BME280;13075;55.682;37.564;2023-02-15T13:31:22;100256.53;;;3.43;96.62
25084;BME280;13075;55.682;37.564;2023-02-15T13:33:51;100260.31;;;3.69;96.29
25084;BME280;13075;55.682;37.564;2023-02-15T13:37:00;100253.19;;;3.50;94.67
25084;BME280;13075;55.682;37.564;2023-02-15T13:47:49;100276.16;;;3.50;99.75
25084;BME280;13075;55.682;37.564;2023-02-15T13:55:53;100265.09;;;3.26;98.43
25084;BME280;13075;55.682;37.564;2023-02-15T14:01:18;100280.91;;;3.75;90.85
25084;BME280;13075;55.682;37.564;2023-02-15T14:04:01;100287.28;;;3.44;93.89
25084;BME280;13075;55.682;37.564;2023-02-15T14:07:03;100286.91;;;3.87;91.15
25084;BME280;13075;55.682;37.564;2023-02-15T14:09:43;100290.59;;;3.36;93.87
25084;BME280;13075;55.682;37.564;2023-02-15T14:12:37;100291.00;;;2.62;100.00
25084;BME280;13075;55.682;37.564;2023-02-15T14:18:04;100290.13;;;3.12;100.00
25084;BME280;13075;55.682;37.564;2023-02-15T14:20:43;100290.81;;;3.63;98.39
25084;BME280;13075;55.682;37.564;2023-02-15T14:26:06;100302.09;;;3.75;94.42
25084;BME280;13075;55.682;37.564;2023-02-15T14:31:42;100297.47;;;3.08;100.00
25084;BME280;13075;55.682;37.564;2023-02-15T14:34:26;100300.53;;;3.53;100.00
25084;BME280;13075;55.682;37.564;2023-02-15T14:36:53;100310.19;;;4.02;93.65
25084;BME280;13075;55.682;37.564;2023-02-15T14:39:29;100300.38;;;4.31;89.82
25084;BME280;13075;55.682;37.564;2023-02-15T14:43:05;100298.59;;;3.55;98.09
25084;BME280;13075;55.682;37.564;2023-02-15T14:46:18;100306.50;;;3.46;100.00
25084;BME280;13075;55.682;37.564;2023-02-15T14:48:51;100311.63;;;3.38;100.00
25084;BME280;13075;55.682;37.564;2023-02-15T14:54:09;100313.06;;;3.61;100.00
25084;BME280;13075;55.682;37.564;2023-02-15T14:56:35;100321.06;;;3.99;100.00
25084;BME280;13075;55.682;37.564;2023-02-15T14:59:21;100320.88;;;3.62;100.00
25084;BME280;13075;55.682;37.564;2023-02-15T15:02:00;100324.56;;;3.31;100.00
25084;BME280;13075;55.682;37.564;2023-02-15T15:04:36;100326.78;;;3.36;100.00
25084;BME280;13075;55.682;37.564;2023-02-15T15:07:22;100326.31;;;3.11;100.00
25084;BME280;13075;55.682;37.564;2023-02-15T15:10:00;100328.03;;;3.32;100.00
25084;BME280;13075;55.682;37.564;2023-02-15T15:14:59;100332.56;;;3.69;100.00
25084;BME280;13075;55.682;37.564;2023-02-15T15:25:40;100342.22;;;3.31;100.00
25084;BME280;13075;55.682;37.564;2023-02-15T15:28:06;100352.66;;;3.23;100.00
25084;BME280;13075;55.682;37.564;2023-02-15T15:32:59;100346.25;;;3.25;100.00
25084;BME280;13075;55.682;37.564;2023-02-15T15:49:02;100372.19;;;3.10;100.00
25084;BME280;13075;55.682;37.564;2023-02-15T15:51:31;100377.59;;;2.79;100.00
25084;BME280;13075;55.682;37.564;2023-02-15T15:53:59;100362.50;;;3.21;100.00